Time;durP1;ratioP1;P1;durP2;ratioP2;P2;SDS_P1;SDS_P2;PMS_P1;PMS_P2;Temp;Humidity;BMP_temperature;BMP_pressure;BME280_temperature;BME280_humidity;BME280_pressure;Samples;Min_cycle;Max_cycle;Signal;HPM_P1;HPM_P2
2023/01/16 00:02:03;;;;;;;;;;;5.50;1.00;;;;;;5025686;28;19959;-82
2023/01/16 00:04:35;;;;;;;;;;;5.20;1.00;;;;;;5033278;28;20272;-81
2023/01/16 00:07:21;;;;;;;;;;;5.20;1.00;;;;;;5034494;28;19916;-81
2023/01/16 00:10:16;;;;;;;;;;;5.20;1.00;;;;;;5025924;28;19909;-82
2023/01/16 00:15:51;;;;;;;;;;;5.20;3.10;;;;;;5034724;28;20455;-79
2023/01/16 00:18:27;;;;;;;;;;;5.20;4.10;;;;;;5034519;28;19963;-80
2023/01/16 00:26:58;;;;;;;;;;;5.30;7.10;;;;;;5032937;28;20347;-82
2023/01/16 00:29:39;;;;;;;;;;;5.20;8.40;;;;;;5030294;28;19913;-80
2023/01/16 00:32:05;;;;;;;;;;;5.30;10.00;;;;;;5033995;28;19909;-75
2023/01/16 00:34:39;;;;;;;;;;;5.30;9.80;;;;;;5033571;28;19967;-75
2023/01/16 00:37:05;;;;;;;;;;;5.30;10.00;;;;;;5033846;28;19916;-75
2023/01/16 00:39:39;;;;;;;;;;;5.40;7.10;;;;;;5033684;28;20015;-75
2023/01/16 00:42:06;;;;;;;;;;;5.50;3.80;;;;;;5015985;28;19913;-75
2023/01/16 00:44:31;;;;;;;;;;;5.50;1.00;;;;;;5036208;28;19964;-75
2023/01/16 00:47:09;;;;;;;;;;;5.50;1.00;;;;;;5033441;28;19917;-80
2023/01/16 00:49:45;;;;;;;;;;;5.60;1.00;;;;;;5004835;28;19963;-80
2023/01/16 00:58:17;;;;;;;;;;;5.60;1.00;;;;;;5023797;28;19955;-82
2023/01/16 01:00:57;;;;;;;;;;;5.40;1.00;;;;;;5033459;28;19909;-80
2023/01/16 01:03:33;;;;;;;;;;;5.40;1.00;;;;;;5033285;28;19925;-80
2023/01/16 01:15:09;;;;;;;;;;;5.20;1.00;;;;;;5034059;28;19962;-82
2023/01/16 01:18:09;;;;;;;;;;;5.20;1.00;;;;;;5033464;28;19992;-77
2023/01/16 01:20:39;;;;;;;;;;;5.10;1.00;;;;;;5015782;28;19962;-75
2023/01/16 01:23:21;;;;;;;;;;;5.00;1.00;;;;;;5032435;28;19928;-75
2023/01/16 01:25:48;;;;;;;;;;;5.10;1.00;;;;;;5033214;28;19916;-75
2023/01/16 01:28:45;;;;;;;;;;;5.00;1.00;;;;;;5045546;28;19920;-78
2023/01/16 01:34:21;;;;;;;;;;;5.00;1.00;;;;;;5025577;28;20382;-82
2023/01/16 01:37:05;;;;;;;;;;;4.90;1.00;;;;;;5018955;28;19909;-82
2023/01/16 01:40:04;;;;;;;;;;;4.90;1.00;;;;;;5033465;28;19909;-82
2023/01/16 01:42:43;;;;;;;;;;;4.90;1.00;;;;;;5032857;28;19920;-82
2023/01/16 01:45:23;;;;;;;;;;;4.90;1.00;;;;;;5009059;28;19909;-82
2023/01/16 01:51:03;;;;;;;;;;;4.80;1.00;;;;;;5032708;28;19963;-82
2023/01/16 01:53:39;;;;;;;;;;;4.80;1.00;;;;;;5033211;28;19956;-82
2023/01/16 01:59:13;;;;;;;;;;;4.80;1.00;;;;;;5016846;28;20271;-82
2023/01/16 02:01:39;;;;;;;;;;;4.80;1.00;;;;;;5015755;28;19916;-82
2023/01/16 02:04:39;;;;;;;;;;;4.80;1.00;;;;;;5015122;28;19917;-82
2023/01/16 02:07:21;;;;;;;;;;;4.80;1.00;;;;;;5015439;28;19935;-84
2023/01/16 02:10:24;;;;;;;;;;;4.80;1.00;;;;;;5027323;28;19919;-82
2023/01/16 02:13:04;;;;;;;;;;;4.70;1.00;;;;;;4975413;28;20316;-83
2023/01/16 02:15:34;;;;;;;;;;;4.70;1.00;;;;;;4959189;28;19910;-82
2023/01/16 02:21:03;;;;;;;;;;;4.70;1.00;;;;;;4955949;28;20400;-79
2023/01/16 02:23:40;;;;;;;;;;;4.70;1.00;;;;;;4971619;28;19918;-78
2023/01/16 02:26:20;;;;;;;;;;;4.70;1.00;;;;;;4956707;28;20568;-77
2023/01/16 02:29:04;;;;;;;;;;;4.80;1.00;;;;;;4975234;28;19958;-78
2023/01/16 02:31:45;;;;;;;;;;;4.80;1.00;;;;;;4976395;28;19914;-78
2023/01/16 02:40:21;;;;;;;;;;;5.10;1.00;;;;;;4963114;28;19937;-82
2023/01/16 02:46:09;;;;;;;;;;;5.20;1.00;;;;;;4980503;28;20270;-83
2023/01/16 02:48:58;;;;;;;;;;;5.20;1.00;;;;;;5016345;28;20277;-77
2023/01/16 02:51:36;;;;;;;;;;;5.30;1.00;;;;;;5025410;28;19913;-77
2023/01/16 02:54:10;;;;;;;;;;;5.40;1.00;;;;;;5030849;28;19913;-77
2023/01/16 02:56:42;;;;;;;;;;;5.40;1.00;;;;;;5035619;28;19909;-75
2023/01/16 02:59:10;;;;;;;;;;;5.40;1.00;;;;;;5035433;28;19916;-75
2023/01/16 03:01:51;;;;;;;;;;;5.50;1.00;;;;;;5017457;28;19913;-75
2023/01/16 03:04:45;;;;;;;;;;;5.50;1.00;;;;;;5035701;28;19913;-75
2023/01/16 03:07:23;;;;;;;;;;;5.50;1.00;;;;;;5035574;28;19962;-76
2023/01/16 03:13:15;;;;;;;;;;;5.70;1.00;;;;;;5015500;28;19916;-75
2023/01/16 03:16:09;;;;;;;;;;;5.70;1.00;;;;;;5034350;28;19921;-75
2023/01/16 03:18:42;;;;;;;;;;;5.70;1.00;;;;;;5035166;28;19916;-75
2023/01/16 03:21:21;;;;;;;;;;;5.70;1.00;;;;;;5035480;28;20428;-75
2023/01/16 03:24:08;;;;;;;;;;;5.70;1.00;;;;;;5034912;28;19917;-75
2023/01/16 03:26:41;;;;;;;;;;;5.70;1.00;;;;;;5035005;28;19913;-75
2023/01/16 03:32:16;;;;;;;;;;;5.70;1.00;;;;;;5029406;28;19920;-75
2023/01/16 03:38:15;;;;;;;;;;;5.80;1.00;;;;;;5034805;28;19947;-80
2023/01/16 03:40:52;;;;;;;;;;;5.80;1.00;;;;;;5034858;28;19913;-81
2023/01/16 03:43:35;;;;;;;;;;;5.70;1.00;;;;;;5034591;28;19913;-80
2023/01/16 03:46:08;;;;;;;;;;;5.70;1.00;;;;;;5034897;28;19909;-80
2023/01/16 03:48:46;;;;;;;;;;;5.70;1.00;;;;;;5017355;28;19925;-75
2023/01/16 03:51:33;;;;;;;;;;;5.80;1.00;;;;;;5034019;28;19921;-75
2023/01/16 03:57:27;;;;;;;;;;;5.80;1.00;;;;;;5034177;28;19967;-76
2023/01/16 03:59:58;;;;;;;;;;;5.80;1.00;;;;;;5016732;28;19968;-77
2023/01/16 04:02:44;;;;;;;;;;;5.80;1.00;;;;;;5022276;28;19960;-77
2023/01/16 04:05:27;;;;;;;;;;;5.70;1.00;;;;;;4954122;28;19910;-77
2023/01/16 04:08:05;;;;;;;;;;;5.60;1.00;;;;;;4954098;29;19934;-75
2023/01/16 04:10:35;;;;;;;;;;;5.50;1.00;;;;;;4954122;29;19911;-77
2023/01/16 04:16:17;;;;;;;;;;;5.30;1.00;;;;;;4942876;29;19969;-77
2023/01/16 04:18:46;;;;;;;;;;;5.20;1.00;;;;;;4954143;29;20301;-82
2023/01/16 04:21:16;;;;;;;;;;;5.00;1.00;;;;;;4953733;29;20016;-82
2023/01/16 04:23:46;;;;;;;;;;;5.00;1.00;;;;;;4970517;28;20001;-82
2023/01/16 04:26:15;;;;;;;;;;;4.90;1.00;;;;;;4960195;28;19914;-82
2023/01/16 04:28:54;;;;;;;;;;;4.90;1.00;;;;;;4953896;29;20008;-82
2023/01/16 04:34:33;;;;;;;;;;;4.70;1.00;;;;;;4953830;29;20048;-77
2023/01/16 04:37:12;;;;;;;;;;;4.60;1.00;;;;;;4953621;29;19961;-77
2023/01/16 04:39:52;;;;;;;;;;;4.60;1.00;;;;;;4953627;29;19917;-76
2023/01/16 04:42:18;;;;;;;;;;;4.60;1.00;;;;;;4994338;28;19917;-77
2023/01/16 04:44:51;;;;;;;;;;;4.60;1.00;;;;;;5033636;28;19910;-76
2023/01/16 04:47:27;;;;;;;;;;;4.60;1.00;;;;;;5039646;28;19959;-77
2023/01/16 04:49:57;;;;;;;;;;;4.60;1.00;;;;;;5014150;28;19924;-81
2023/01/16 04:58:39;;;;;;;;;;;4.80;1.00;;;;;;5025201;28;19916;-82
2023/01/16 05:07:11;;;;;;;;;;;5.00;1.00;;;;;;5013897;28;19951;-80
2023/01/16 05:18:46;;;;;;;;;;;5.00;1.00;;;;;;5035982;28;19936;-83
2023/01/16 05:21:39;;;;;;;;;;;5.10;1.00;;;;;;5034172;28;19917;-86
2023/01/16 05:24:16;;;;;;;;;;;5.10;1.00;;;;;;5022102;28;20437;-83
2023/01/16 05:27:09;;;;;;;;;;;5.10;1.00;;;;;;5033351;28;19963;-82
2023/01/16 05:35:46;;;;;;;;;;;5.20;1.00;;;;;;5024277;28;20425;-76
2023/01/16 05:38:12;;;;;;;;;;;5.20;1.00;;;;;;5033175;28;20286;-80
2023/01/16 05:40:40;;;;;;;;;;;5.20;1.00;;;;;;5018506;28;19913;-76
2023/01/16 05:43:05;;;;;;;;;;;5.20;1.00;;;;;;5038081;28;20348;-74
2023/01/16 05:45:34;;;;;;;;;;;5.20;1.00;;;;;;5037151;28;19963;-76
2023/01/16 05:47:59;;;;;;;;;;;5.20;1.00;;;;;;5027912;28;19955;-77
2023/01/16 05:50:33;;;;;;;;;;;5.20;1.00;;;;;;5037032;28;19964;-77
2023/01/16 05:53:04;;;;;;;;;;;5.10;1.00;;;;;;5024738;28;19909;-76
2023/01/16 05:55:48;;;;;;;;;;;5.10;1.00;;;;;;5017537;28;19917;-74
2023/01/16 05:58:22;;;;;;;;;;;5.00;1.00;;;;;;5028757;28;19913;-76
2023/01/16 06:00:51;;;;;;;;;;;5.00;1.00;;;;;;5036540;28;19919;-76
2023/01/16 06:03:21;;;;;;;;;;;5.00;1.00;;;;;;5036734;28;20008;-76
2023/01/16 06:05:51;;;;;;;;;;;5.10;1.00;;;;;;5037091;28;19909;-76
2023/01/16 06:08:17;;;;;;;;;;;5.10;1.00;;;;;;5036610;28;19939;-76
2023/01/16 06:10:47;;;;;;;;;;;5.20;1.00;;;;;;5034944;28;19975;-76
2023/01/16 06:13:15;;;;;;;;;;;5.30;1.00;;;;;;5046929;28;19913;-76
2023/01/16 06:15:52;;;;;;;;;;;5.40;1.00;;;;;;5036229;28;19917;-77
2023/01/16 06:18:17;;;;;;;;;;;5.50;1.00;;;;;;5036511;28;19909;-76
2023/01/16 06:21:03;;;;;;;;;;;5.50;1.00;;;;;;5018682;28;19920;-76
2023/01/16 06:23:34;;;;;;;;;;;5.60;1.00;;;;;;5036326;28;19960;-76
2023/01/16 06:26:00;;;;;;;;;;;5.60;1.00;;;;;;5035113;28;19917;-77
2023/01/16 06:28:26;;;;;;;;;;;5.70;1.00;;;;;;5041785;28;19952;-76
2023/01/16 06:30:52;;;;;;;;;;;5.70;1.00;;;;;;5035806;28;19920;-77
2023/01/16 06:33:22;;;;;;;;;;;5.70;1.00;;;;;;5025675;28;20268;-77
2023/01/16 06:35:48;;;;;;;;;;;5.80;1.00;;;;;;5018075;28;19964;-79
2023/01/16 06:38:14;;;;;;;;;;;5.80;1.00;;;;;;5035849;28;19963;-77
2023/01/16 06:40:40;;;;;;;;;;;5.70;1.00;;;;;;5022656;28;19933;-79
2023/01/16 06:43:10;;;;;;;;;;;5.70;1.00;;;;;;5018011;28;19999;-78
2023/01/16 06:45:52;;;;;;;;;;;5.70;1.00;;;;;;5031467;28;20377;-78
2023/01/16 06:48:45;;;;;;;;;;;5.70;1.00;;;;;;5017750;28;20279;-76
2023/01/16 06:51:11;;;;;;;;;;;5.60;1.00;;;;;;5024394;28;19921;-77
2023/01/16 06:53:39;;;;;;;;;;;5.60;1.00;;;;;;5034196;28;19924;-79
2023/01/16 06:56:17;;;;;;;;;;;5.60;1.00;;;;;;5024131;28;19917;-76
2023/01/16 06:58:52;;;;;;;;;;;5.50;1.00;;;;;;5028191;28;20551;-76
2023/01/16 07:01:20;;;;;;;;;;;5.50;1.00;;;;;;5034787;28;20587;-77
2023/01/16 07:03:46;;;;;;;;;;;5.30;1.00;;;;;;5027142;28;20299;-77
2023/01/16 07:06:15;;;;;;;;;;;5.30;1.00;;;;;;5033683;28;20336;-77
2023/01/16 07:08:48;;;;;;;;;;;5.20;1.00;;;;;;5034577;28;19917;-77
2023/01/16 07:11:14;;;;;;;;;;;5.20;1.00;;;;;;5022115;28;19909;-78
2023/01/16 07:22:34;;;;;;;;;;;5.10;1.00;;;;;;5006610;28;20004;-77
2023/01/16 07:22:34;;;;;;;;;;;5.00;1.00;;;;;;5034986;28;19971;-78
2023/01/16 07:25:02;;;;;;;;;;;5.10;1.00;;;;;;5021474;28;19909;-76
2023/01/16 07:27:27;;;;;;;;;;;5.00;1.00;;;;;;5040307;28;19912;-77
2023/01/16 07:29:53;;;;;;;;;;;5.00;1.00;;;;;;5016419;28;19920;-77
2023/01/16 07:32:19;;;;;;;;;;;5.00;1.00;;;;;;5017339;28;19936;-77
2023/01/16 07:34:51;;;;;;;;;;;5.00;1.00;;;;;;5024873;28;19959;-77
2023/01/16 07:37:17;;;;;;;;;;;5.00;1.00;;;;;;5052133;28;19920;-77
2023/01/16 07:39:58;;;;;;;;;;;5.00;1.00;;;;;;5036135;28;20272;-77
2023/01/16 07:42:28;;;;;;;;;;;5.00;1.00;;;;;;5028087;28;19924;-77
2023/01/16 07:45:04;;;;;;;;;;;5.00;1.00;;;;;;5034918;28;19916;-76
2023/01/16 07:47:29;;;;;;;;;;;5.00;1.00;;;;;;5034572;28;19916;-77
2023/01/16 07:50:04;;;;;;;;;;;5.10;1.00;;;;;;5016769;28;19959;-77
2023/01/16 07:52:29;;;;;;;;;;;5.10;1.00;;;;;;5034230;28;20331;-77
2023/01/16 07:55:04;;;;;;;;;;;5.10;1.00;;;;;;5034650;28;19913;-78
2023/01/16 07:57:29;;;;;;;;;;;5.20;1.00;;;;;;5025808;28;19996;-74
2023/01/16 07:59:55;;;;;;;;;;;5.30;1.00;;;;;;5033291;28;19996;-71
2023/01/16 08:05:24;;;;;;;;;;;5.40;1.00;;;;;;5033971;28;19917;-77
2023/01/16 08:07:52;;;;;;;;;;;5.40;1.00;;;;;;5043158;28;19913;-77
2023/01/16 08:10:34;;;;;;;;;;;5.50;1.00;;;;;;5031739;28;20686;-77
2023/01/16 08:13:16;;;;;;;;;;;5.50;1.00;;;;;;5026101;28;19913;-75
2023/01/16 08:15:41;;;;;;;;;;;5.50;1.00;;;;;;5022138;28;19924;-76
2023/01/16 08:18:07;;;;;;;;;;;5.70;1.00;;;;;;5034369;28;20288;-77
2023/01/16 08:23:51;;;;;;;;;;;5.80;1.00;;;;;;5036713;28;19928;-85
2023/01/16 08:26:17;;;;;;;;;;;5.80;1.00;;;;;;5018980;28;19913;-85
2023/01/16 08:28:46;;;;;;;;;;;5.80;1.00;;;;;;5032862;28;19920;-85
2023/01/16 08:31:17;;;;;;;;;;;5.90;1.00;;;;;;5031940;28;19952;-85
2023/01/16 08:33:47;;;;;;;;;;;6.00;1.00;;;;;;5031798;28;19920;-83
2023/01/16 08:36:22;;;;;;;;;;;6.00;1.00;;;;;;5034670;28;19909;-85
2023/01/16 08:53:29;;;;;;;;;;;6.10;1.00;;;;;;5033160;28;19932;-85
2023/01/16 08:55:55;;;;;;;;;;;6.10;1.00;;;;;;5015452;28;19921;-84
2023/01/16 08:58:39;;;;;;;;;;;6.10;1.00;;;;;;5015250;28;19916;-85
2023/01/16 09:01:22;;;;;;;;;;;6.10;1.00;;;;;;5010725;28;19909;-84
2023/01/16 09:06:53;;;;;;;;;;;6.20;1.00;;;;;;5022772;28;19920;-77
2023/01/16 09:09:40;;;;;;;;;;;6.20;1.00;;;;;;5034703;28;19916;-78
2023/01/16 09:15:10;;;;;;;;;;;6.20;1.00;;;;;;5022348;28;19916;-77
2023/01/16 09:17:57;;;;;;;;;;;6.20;1.00;;;;;;5035526;28;19913;-78
2023/01/16 09:20:40;;;;;;;;;;;6.20;1.00;;;;;;5037300;28;19944;-77
2023/01/16 09:23:10;;;;;;;;;;;6.20;1.00;;;;;;5019556;28;20016;-78
2023/01/16 09:25:35;;;;;;;;;;;6.20;1.00;;;;;;5037190;28;19996;-78
2023/01/16 09:28:17;;;;;;;;;;;6.10;1.00;;;;;;5034607;28;20011;-77
2023/01/16 09:30:58;;;;;;;;;;;6.10;1.00;;;;;;5017820;28;19909;-78
2023/01/16 09:33:23;;;;;;;;;;;6.10;1.00;;;;;;5036930;28;19909;-77
2023/01/16 09:36:04;;;;;;;;;;;6.10;1.00;;;;;;5037200;28;19945;-77
2023/01/16 09:38:34;;;;;;;;;;;6.20;1.00;;;;;;5037414;28;20253;-77
2023/01/16 09:41:04;;;;;;;;;;;6.20;1.00;;;;;;5037358;28;19975;-77
2023/01/16 09:43:41;;;;;;;;;;;6.10;1.00;;;;;;5037221;28;19913;-77
2023/01/16 09:46:25;;;;;;;;;;;6.20;1.00;;;;;;5019292;28;20372;-77
2023/01/16 09:49:02;;;;;;;;;;;6.20;1.00;;;;;;5026197;28;20003;-78
2023/01/16 09:58:34;;;;;;;;;;;6.20;1.00;;;;;;5019088;28;19913;-78
2023/01/16 10:00:10;;;;;;;;;;;6.20;1.00;;;;;;5027335;28;20410;-77
2023/01/16 10:02:40;;;;;;;;;;;6.20;1.00;;;;;;5036361;28;19977;-77
2023/01/16 10:05:10;;;;;;;;;;;6.30;1.00;;;;;;5036630;28;19916;-77
2023/01/16 10:07:58;;;;;;;;;;;6.30;1.00;;;;;;5037272;28;19909;-76
2023/01/16 10:10:59;;;;;;;;;;;6.30;1.00;;;;;;5021971;28;19964;-75
2023/01/16 10:13:42;;;;;;;;;;;6.30;1.00;;;;;;4938851;29;19914;-75
2023/01/16 10:16:28;;;;;;;;;;;6.30;1.00;;;;;;4940273;29;19915;-76
2023/01/16 10:19:30;;;;;;;;;;;6.30;1.00;;;;;;4949480;29;20377;-75
2023/01/16 10:22:02;;;;;;;;;;;6.40;1.00;;;;;;4905540;29;20506;-75
2023/01/16 10:27:41;;;;;;;;;;;6.40;1.00;;;;;;4909279;29;19958;-75
2023/01/16 10:30:10;;;;;;;;;;;6.40;1.00;;;;;;4904560;29;19911;-75
2023/01/16 10:32:43;;;;;;;;;;;6.40;1.00;;;;;;4907746;29;20456;-75
2023/01/16 10:35:13;;;;;;;;;;;6.40;1.00;;;;;;4907689;29;19915;-76
2023/01/16 10:37:42;;;;;;;;;;;6.40;1.00;;;;;;4899708;29;19945;-76
2023/01/16 10:52:15;;;;;;;;;;;6.30;1.00;;;;;;4965335;28;20029;-85
2023/01/16 11:00:49;;;;;;;;;;;6.30;1.00;;;;;;5020533;28;19920;-84
2023/01/16 11:03:52;;;;;;;;;;;6.20;1.00;;;;;;5007345;28;19917;-85
2023/01/16 11:09:23;;;;;;;;;;;6.10;1.00;;;;;;5035389;28;19951;-78
2023/01/16 11:20:22;;;;;;;;;;;5.90;1.00;;;;;;5033963;28;19920;-77
2023/01/16 11:22:50;;;;;;;;;;;5.90;1.00;;;;;;5029299;28;20276;-77
2023/01/16 11:25:34;;;;;;;;;;;5.80;1.00;;;;;;5045740;28;19924;-77
2023/01/16 11:28:05;;;;;;;;;;;5.80;1.00;;;;;;5037742;28;20276;-77
2023/01/16 11:30:38;;;;;;;;;;;5.90;1.00;;;;;;5032636;28;19916;-77
2023/01/16 11:33:07;;;;;;;;;;;6.00;1.00;;;;;;5034647;28;19917;-77
2023/01/16 11:36:06;;;;;;;;;;;5.90;1.00;;;;;;5013928;28;19909;-75
2023/01/16 11:39:04;;;;;;;;;;;5.90;1.00;;;;;;4944340;28;19914;-78
2023/01/16 11:41:34;;;;;;;;;;;5.90;1.00;;;;;;4960795;28;19910;-77
2023/01/16 11:47:28;;;;;;;;;;;6.10;1.00;;;;;;4955476;28;19945;-78
2023/01/16 11:49:58;;;;;;;;;;;6.10;1.00;;;;;;4963760;28;20206;-78
2023/01/16 11:55:46;;;;;;;;;;;6.30;1.00;;;;;;4954956;29;20458;-85
2023/01/16 12:02:15;;;;;;;;;;;6.30;1.00;;;;;;4954110;28;19993;-84
2023/01/16 12:07:58;;;;;;;;;;;6.50;1.00;;;;;;4952107;29;19922;-84
2023/01/16 12:19:54;;;;;;;;;;;7.00;1.00;;;;;;4984541;28;19964;-85
2023/01/16 12:22:28;;;;;;;;;;;6.80;1.00;;;;;;4992843;28;19972;-86
2023/01/16 12:28:28;;;;;;;;;;;7.00;1.00;;;;;;4979854;28;20587;-85
2023/01/16 12:34:16;;;;;;;;;;;7.10;1.00;;;;;;4980943;28;20471;-84
2023/01/16 12:39:44;;;;;;;;;;;7.30;1.00;;;;;;4987019;28;19921;-85
2023/01/16 12:54:28;;;;;;;;;;;7.70;1.00;;;;;;5025964;28;19920;-76
2023/01/16 12:57:07;;;;;;;;;;;7.70;1.00;;;;;;5029350;28;19913;-75
2023/01/16 12:59:40;;;;;;;;;;;7.60;1.00;;;;;;5032884;28;19913;-75
2023/01/16 13:02:20;;;;;;;;;;;7.60;1.00;;;;;;5030051;28;19931;-83
2023/01/16 13:07:58;;;;;;;;;;;7.40;1.00;;;;;;5031874;28;20020;-84
2023/01/16 13:20:04;;;;;;;;;;;7.40;1.00;;;;;;5043855;28;20019;-83
2023/01/16 13:25:44;;;;;;;;;;;7.60;1.00;;;;;;5014168;28;19916;-86
2023/01/16 13:28:28;;;;;;;;;;;7.60;1.00;;;;;;5012202;28;20237;-85
2023/01/16 13:31:30;;;;;;;;;;;7.70;1.00;;;;;;4996970;28;19922;-85
2023/01/16 13:34:24;;;;;;;;;;;7.60;1.00;;;;;;4933253;29;19911;-85
2023/01/16 13:40:03;;;;;;;;;;;7.70;1.00;;;;;;4959370;28;20025;-85
2023/01/16 14:04:19;;;;;;;;;;;7.70;1.00;;;;;;4907092;29;19926;-85
2023/01/16 14:13:00;;;;;;;;;;;7.70;1.00;;;;;;4957377;29;20290;-85
2023/01/16 14:21:43;;;;;;;;;;;7.60;1.00;;;;;;5037615;28;20275;-85
2023/01/16 14:24:22;;;;;;;;;;;7.50;1.00;;;;;;5037345;28;20365;-85
2023/01/16 14:26:53;;;;;;;;;;;7.60;1.00;;;;;;5018975;28;19909;-76
2023/01/16 14:29:31;;;;;;;;;;;7.60;1.00;;;;;;5031414;28;19917;-77
2023/01/16 14:31:56;;;;;;;;;;;7.60;1.00;;;;;;5053990;28;20267;-76
2023/01/16 14:34:52;;;;;;;;;;;7.50;1.00;;;;;;5038504;28;19940;-76
2023/01/16 14:37:28;;;;;;;;;;;7.50;1.00;;;;;;5036507;28;19909;-76
2023/01/16 14:55:12;;;;;;;;;;;7.50;1.00;;;;;;5037020;28;19910;-76
2023/01/16 14:55:15;;;;;;;;;;;7.40;1.00;;;;;;4972390;28;19921;-77
2023/01/16 14:57:47;;;;;;;;;;;7.40;1.00;;;;;;4958263;28;19992;-76
2023/01/16 15:00:19;;;;;;;;;;;7.40;1.00;;;;;;4975228;28;19953;-76
2023/01/16 15:02:53;;;;;;;;;;;7.40;1.00;;;;;;4973502;28;19922;-76
2023/01/16 15:05:51;;;;;;;;;;;7.40;1.00;;;;;;4964421;28;19918;-76
2023/01/16 15:08:33;;;;;;;;;;;7.40;1.00;;;;;;4967035;28;19934;-76
2023/01/16 15:11:31;;;;;;;;;;;7.40;1.00;;;;;;4958150;28;19914;-77
2023/01/16 15:14:25;;;;;;;;;;;7.40;1.00;;;;;;4977158;28;20009;-76
2023/01/16 15:22:43;;;;;;;;;;;7.30;1.00;;;;;;5023339;28;20395;-77
2023/01/16 15:25:25;;;;;;;;;;;7.20;1.00;;;;;;5035337;28;19936;-77
2023/01/16 15:28:11;;;;;;;;;;;7.30;1.00;;;;;;5037332;28;19919;-77
2023/01/16 15:30:51;;;;;;;;;;;7.20;1.00;;;;;;4955155;29;20052;-76
2023/01/16 15:36:40;;;;;;;;;;;7.00;1.00;;;;;;4937639;29;20401;-76
2023/01/16 15:39:07;;;;;;;;;;;7.00;1.00;;;;;;4858206;29;20076;-76
2023/01/16 15:48:08;;;;;;;;;;;6.60;1.00;;;;;;4861620;29;20371;-85
2023/01/16 15:51:10;;;;;;;;;;;6.40;1.00;;;;;;4850164;29;19972;-86
2023/01/16 16:00:16;;;;;;;;;;;6.20;1.00;;;;;;4860692;29;19926;-87
2023/01/16 16:06:02;;;;;;;;;;;6.10;1.00;;;;;;4849127;29;19928;-88
2023/01/16 16:09:02;;;;;;;;;;;5.90;1.00;;;;;;4889616;29;19916;-86
2023/01/16 16:23:12;;;;;;;;;;;5.80;1.00;;;;;;4973454;28;19976;-80
2023/01/16 16:25:40;;;;;;;;;;;5.80;1.00;;;;;;4964724;28;19917;-78
2023/01/16 16:28:38;;;;;;;;;;;5.90;1.00;;;;;;4970853;28;20402;-77
2023/01/16 16:31:24;;;;;;;;;;;5.80;1.00;;;;;;4911773;29;19915;-77
2023/01/16 16:33:55;;;;;;;;;;;5.80;1.00;;;;;;4908427;29;19919;-77
2023/01/16 16:36:28;;;;;;;;;;;5.80;1.00;;;;;;4902965;29;19918;-78
2023/01/16 16:39:16;;;;;;;;;;;5.80;1.00;;;;;;4909722;29;19919;-79
2023/01/16 16:45:02;;;;;;;;;;;5.80;1.00;;;;;;4906706;29;20458;-85
2023/01/16 16:47:29;;;;;;;;;;;5.80;1.00;;;;;;4925310;29;19915;-85
2023/01/16 16:53:22;;;;;;;;;;;5.80;1.00;;;;;;4940855;29;19966;-84
2023/01/16 17:02:16;;;;;;;;;;;5.70;6.40;;;;;;4946934;29;20302;-83
2023/01/16 17:05:04;;;;;;;;;;;5.70;7.20;;;;;;4937890;28;19919;-84
2023/01/16 17:07:58;;;;;;;;;;;5.70;7.30;;;;;;4977242;28;19963;-83
2023/01/16 17:13:52;;;;;;;;;;;5.70;5.60;;;;;;5034183;28;19956;-93
2023/01/16 17:16:34;;;;;;;;;;;5.70;2.00;;;;;;5016839;28;20307;-93
2023/01/16 17:19:05;;;;;;;;;;;5.70;1.60;;;;;;5019951;28;19913;-83
2023/01/16 17:21:31;;;;;;;;;;;5.70;2.40;;;;;;5008403;28;19914;-92
2023/01/16 17:27:01;;;;;;;;;;;5.70;4.90;;;;;;5035927;28;19935;-88
2023/01/16 17:35:58;;;;;;;;;;;5.80;5.60;;;;;;5036967;28;20292;-79
2023/01/16 17:38:52;;;;;;;;;;;5.70;7.50;;;;;;5030899;28;19916;-81
2023/01/16 17:41:23;;;;;;;;;;;5.80;6.30;;;;;;5037499;28;19917;-78
2023/01/16 17:52:40;;;;;;;;;;;5.70;7.50;;;;;;5024941;28;19958;-77
2023/01/16 17:57:52;;;;;;;;;;;5.60;6.30;;;;;;5029198;28;19967;-79
2023/01/16 18:00:28;;;;;;;;;;;5.60;5.90;;;;;;5032871;28;20008;-78
2023/01/16 18:02:58;;;;;;;;;;;5.60;3.50;;;;;;5031718;28;19917;-79
2023/01/16 18:05:23;;;;;;;;;;;5.60;3.90;;;;;;5034404;28;19913;-79
2023/01/16 18:08:16;;;;;;;;;;;5.60;1.00;;;;;;5032717;28;20407;-78
2023/01/16 18:10:42;;;;;;;;;;;5.70;1.00;;;;;;5030337;28;20348;-79
2023/01/16 18:22:34;;;;;;;;;;;5.70;1.00;;;;;;4995039;28;19924;-79
2023/01/16 18:25:16;;;;;;;;;;;5.70;1.00;;;;;;4997977;28;20372;-78
2023/01/16 18:28:10;;;;;;;;;;;5.70;1.00;;;;;;4995479;28;19910;-84
2023/01/16 18:33:38;;;;;;;;;;;5.70;1.00;;;;;;4993318;28;20440;-82
2023/01/16 18:36:10;;;;;;;;;;;5.60;1.00;;;;;;4983291;28;19913;-83
2023/01/16 19:02:07;;;;;;;;;;;5.50;1.00;;;;;;4975427;28;20001;-83
2023/01/16 19:04:40;;;;;;;;;;;5.50;1.00;;;;;;4975261;28;20013;-84
2023/01/16 19:07:07;;;;;;;;;;;5.50;1.00;;;;;;4974945;28;19925;-82
2023/01/16 19:12:58;;;;;;;;;;;5.50;1.00;;;;;;4974669;28;19916;-82
2023/01/16 19:15:29;;;;;;;;;;;5.50;1.00;;;;;;4974945;28;19924;-80
2023/01/16 19:17:58;;;;;;;;;;;5.50;1.00;;;;;;4958492;28;19914;-81
2023/01/16 19:20:28;;;;;;;;;;;5.50;1.00;;;;;;4974606;28;19914;-81
2023/01/16 19:22:58;;;;;;;;;;;5.50;1.00;;;;;;4961390;28;19941;-80
2023/01/16 19:25:34;;;;;;;;;;;5.40;1.00;;;;;;4974710;28;19910;-81
2023/01/16 19:27:59;;;;;;;;;;;5.30;1.00;;;;;;4970226;28;19919;-78
2023/01/16 19:30:27;;;;;;;;;;;5.30;1.00;;;;;;4948193;28;19910;-78
2023/01/16 19:32:52;;;;;;;;;;;5.40;1.00;;;;;;4974319;28;19914;-79
2023/01/16 19:35:18;;;;;;;;;;;5.30;1.00;;;;;;4985794;28;19919;-79
2023/01/16 19:37:52;;;;;;;;;;;5.30;1.00;;;;;;5026599;28;19917;-81
2023/01/16 19:40:28;;;;;;;;;;;5.20;1.00;;;;;;5031082;28;19950;-82
2023/01/16 19:48:58;;;;;;;;;;;5.20;1.00;;;;;;4993565;28;19909;-82
2023/01/16 19:51:34;;;;;;;;;;;5.30;1.00;;;;;;4993528;28;19910;-82
2023/01/16 19:54:28;;;;;;;;;;;5.20;1.00;;;;;;4993464;28;19910;-81
2023/01/16 19:57:16;;;;;;;;;;;5.20;1.00;;;;;;4993256;28;19910;-82
2023/01/16 20:02:46;;;;;;;;;;;5.20;1.00;;;;;;4973700;28;19929;-81
2023/01/16 20:05:12;;;;;;;;;;;5.10;1.00;;;;;;4957760;28;20377;-77
2023/01/16 20:07:58;;;;;;;;;;;5.20;1.00;;;;;;4987913;28;19918;-78
2023/01/16 20:10:34;;;;;;;;;;;5.10;1.00;;;;;;4993322;28;20000;-77
2023/01/16 20:13:10;;;;;;;;;;;5.10;1.00;;;;;;4989813;28;19914;-78
2023/01/16 20:15:40;;;;;;;;;;;5.10;1.00;;;;;;4993053;28;19909;-79
2023/01/16 20:18:16;;;;;;;;;;;5.10;1.00;;;;;;4980399;28;19910;-78
2023/01/16 20:20:48;;;;;;;;;;;5.20;1.00;;;;;;4992588;28;20380;-78
2023/01/16 20:23:22;;;;;;;;;;;5.20;1.00;;;;;;5015086;28;19924;-76
2023/01/16 20:25:48;;;;;;;;;;;5.20;1.00;;;;;;5034043;28;19956;-75
2023/01/16 20:28:16;;;;;;;;;;;5.20;1.00;;;;;;5012985;28;20006;-75
2023/01/16 20:30:59;;;;;;;;;;;5.20;1.00;;;;;;5034407;28;20004;-79
2023/01/16 20:33:40;;;;;;;;;;;5.20;1.00;;;;;;5032149;28;19913;-75
2023/01/16 20:36:07;;;;;;;;;;;5.20;1.00;;;;;;5016210;28;19909;-75
2023/01/16 20:38:34;;;;;;;;;;;5.30;1.00;;;;;;5033946;28;19913;-75
2023/01/16 20:41:11;;;;;;;;;;;5.20;1.00;;;;;;5033170;28;19996;-76
2023/01/16 20:46:28;;;;;;;;;;;5.20;1.00;;;;;;5042322;28;19963;-76
2023/01/16 20:48:53;;;;;;;;;;;5.20;1.00;;;;;;5033309;28;19913;-74
2023/01/16 20:51:19;;;;;;;;;;;5.20;1.00;;;;;;5033431;28;20265;-74
2023/01/16 20:53:59;;;;;;;;;;;5.20;1.00;;;;;;5033863;28;19999;-75
2023/01/16 20:56:34;;;;;;;;;;;5.20;1.00;;;;;;5033648;28;20291;-75
2023/01/16 20:59:16;;;;;;;;;;;5.20;1.00;;;;;;5033422;28;19909;-75
2023/01/16 21:01:46;;;;;;;;;;;5.20;1.00;;;;;;5033930;28;19957;-75
2023/01/16 21:04:13;;;;;;;;;;;5.20;1.00;;;;;;5033557;28;19963;-76
2023/01/16 21:06:40;;;;;;;;;;;5.10;1.00;;;;;;5033613;28;19999;-75
2023/01/16 21:09:10;;;;;;;;;;;5.10;1.00;;;;;;5033602;28;19916;-75
2023/01/16 21:14:34;;;;;;;;;;;5.10;1.00;;;;;;5037843;28;20422;-75
2023/01/16 21:23:28;;;;;;;;;;;5.10;1.00;;;;;;4976887;28;19918;-82
2023/01/16 21:26:10;;;;;;;;;;;5.10;1.00;;;;;;4976356;28;19922;-80
2023/01/16 21:31:40;;;;;;;;;;;5.00;1.00;;;;;;4976841;28;19988;-75
2023/01/16 21:34:22;;;;;;;;;;;5.00;1.00;;;;;;4976413;28;19917;-75
2023/01/16 21:36:49;;;;;;;;;;;5.00;1.00;;;;;;4975728;28;20396;-80
2023/01/16 21:39:28;;;;;;;;;;;5.00;1.00;;;;;;4976563;28;19917;-75
2023/01/16 21:47:46;;;;;;;;;;;4.90;1.00;;;;;;4971471;28;19961;-76
2023/01/16 21:50:28;;;;;;;;;;;4.90;1.00;;;;;;4975321;28;19921;-76
2023/01/16 21:53:04;;;;;;;;;;;4.90;1.00;;;;;;4985724;28;19914;-75
2023/01/16 21:55:52;;;;;;;;;;;4.90;1.00;;;;;;5030244;28;19963;-74
2023/01/16 21:58:29;;;;;;;;;;;4.90;1.00;;;;;;5032494;28;19913;-75
2023/01/16 22:01:05;;;;;;;;;;;4.90;1.00;;;;;;5034670;28;19917;-75
2023/01/16 22:06:37;;;;;;;;;;;4.90;1.00;;;;;;5031374;28;20457;-81
2023/01/16 22:09:03;;;;;;;;;;;4.90;1.00;;;;;;5037155;28;19922;-81
2023/01/16 22:17:42;;;;;;;;;;;5.00;1.00;;;;;;5031298;28;19919;-81
2023/01/16 22:20:40;;;;;;;;;;;5.00;1.00;;;;;;5018944;28;19920;-82
2023/01/16 22:23:06;;;;;;;;;;;5.00;1.00;;;;;;5018692;28;19975;-81
2023/01/16 22:28:58;;;;;;;;;;;5.10;1.00;;;;;;5033894;28;20012;-82
2023/01/16 22:31:59;;;;;;;;;;;5.10;1.00;;;;;;5018355;28;19952;-82
2023/01/16 22:34:28;;;;;;;;;;;5.00;1.00;;;;;;5034215;28;19928;-76
2023/01/16 22:36:58;;;;;;;;;;;5.00;1.00;;;;;;5036510;28;20008;-75
2023/01/16 22:39:28;;;;;;;;;;;5.00;1.00;;;;;;5036453;28;19916;-75
2023/01/16 22:41:54;;;;;;;;;;;5.00;1.00;;;;;;5037454;28;19913;-77